sensor_id;sensor_type;location;lat;lon;timestamp;P1;P2;P0
62591;PMS5003;48659;41.622;2.276;2024-03-22T00:00:14;16;13;
62591;PMS5003;48659;41.622;2.276;2024-03-22T00:02:42;20;17;
62591;PMS5003;48659;41.622;2.276;2024-03-22T00:05:10;27;22;
62591;PMS5003;48659;41.622;2.276;2024-03-22T00:07:37;21;18;
62591;PMS5003;48659;41.622;2.276;2024-03-22T00:10:16;25;23;
62591;PMS5003;48659;41.622;2.276;2024-03-22T00:12:43;18;17;
62591;PMS5003;48659;41.622;2.276;2024-03-22T00:15:11;20;19;
62591;PMS5003;48659;41.622;2.276;2024-03-22T00:17:38;22;18;
62591;PMS5003;48659;41.622;2.276;2024-03-22T00:20:06;34;27;
62591;PMS5003;48659;41.622;2.276;2024-03-22T00:22:34;39;33;
62591;PMS5003;48659;41.622;2.276;2024-03-22T00:25:01;29;23;
62591;PMS5003;48659;41.622;2.276;2024-03-22T00:27:29;36;25;
62591;PMS5003;48659;41.622;2.276;2024-03-22T00:29:57;24;23;
62591;PMS5003;48659;41.622;2.276;2024-03-22T00:32:25;33;28;
62591;PMS5003;48659;41.622;2.276;2024-03-22T00:34:52;28;24;
62591;PMS5003;48659;41.622;2.276;2024-03-22T00:37:20;32;25;
62591;PMS5003;48659;41.622;2.276;2024-03-22T00:39:47;31;21;
62591;PMS5003;48659;41.622;2.276;2024-03-22T00:42:15;32;29;
62591;PMS5003;48659;41.622;2.276;2024-03-22T00:44:43;27;21;
62591;PMS5003;48659;41.622;2.276;2024-03-22T00:47:10;24;21;
62591;PMS5003;48659;41.622;2.276;2024-03-22T00:49:38;28;20;
62591;PMS5003;48659;41.622;2.276;2024-03-22T00:52:06;30;24;
62591;PMS5003;48659;41.622;2.276;2024-03-22T00:54:34;21;21;
62591;PMS5003;48659;41.622;2.276;2024-03-22T00:57:01;27;21;
62591;PMS5003;48659;41.622;2.276;2024-03-22T00:59:29;19;16;
62591;PMS5003;48659;41.622;2.276;2024-03-22T01:01:57;28;22;
62591;PMS5003;48659;41.622;2.276;2024-03-22T01:04:28;22;17;
62591;PMS5003;48659;41.622;2.276;2024-03-22T01:06:56;31;28;
62591;PMS5003;48659;41.622;2.276;2024-03-22T01:09:23;18;16;
62591;PMS5003;48659;41.622;2.276;2024-03-22T01:11:51;34;28;
62591;PMS5003;48659;41.622;2.276;2024-03-22T01:14:18;34;29;
62591;PMS5003;48659;41.622;2.276;2024-03-22T01:16:46;24;21;
62591;PMS5003;48659;41.622;2.276;2024-03-22T01:19:14;33;28;
62591;PMS5003;48659;41.622;2.276;2024-03-22T01:21:41;28;23;
62591;PMS5003;48659;41.622;2.276;2024-03-22T01:24:08;26;17;
62591;PMS5003;48659;41.622;2.276;2024-03-22T01:26:36;20;18;
62591;PMS5003;48659;41.622;2.276;2024-03-22T01:29:03;28;24;
62591;PMS5003;48659;41.622;2.276;2024-03-22T01:31:31;39;32;
62591;PMS5003;48659;41.622;2.276;2024-03-22T01:33:59;22;20;
62591;PMS5003;48659;41.622;2.276;2024-03-22T01:36:27;25;24;
62591;PMS5003;48659;41.622;2.276;2024-03-22T01:38:54;29;26;
62591;PMS5003;48659;41.622;2.276;2024-03-22T01:41:22;28;23;
62591;PMS5003;48659;41.622;2.276;2024-03-22T01:43:54;31;28;
62591;PMS5003;48659;41.622;2.276;2024-03-22T01:46:22;32;23;
62591;PMS5003;48659;41.622;2.276;2024-03-22T01:48:49;28;23;
62591;PMS5003;48659;41.622;2.276;2024-03-22T01:51:18;29;24;
62591;PMS5003;48659;41.622;2.276;2024-03-22T01:53:45;18;17;
62591;PMS5003;48659;41.622;2.276;2024-03-22T01:56:12;26;24;
62591;PMS5003;48659;41.622;2.276;2024-03-22T01:58:40;23;20;
62591;PMS5003;48659;41.622;2.276;2024-03-22T02:01:08;32;26;
62591;PMS5003;48659;41.622;2.276;2024-03-22T02:03:36;28;21;
62591;PMS5003;48659;41.622;2.276;2024-03-22T02:06:08;29;23;
62591;PMS5003;48659;41.622;2.276;2024-03-22T02:08:36;20;19;
62591;PMS5003;48659;41.622;2.276;2024-03-22T02:11:03;33;29;
62591;PMS5003;48659;41.622;2.276;2024-03-22T02:13:30;31;24;
62591;PMS5003;48659;41.622;2.276;2024-03-22T02:15:58;31;26;
62591;PMS5003;48659;41.622;2.276;2024-03-22T02:18:26;25;25;
62591;PMS5003;48659;41.622;2.276;2024-03-22T02:20:53;31;21;
62591;PMS5003;48659;41.622;2.276;2024-03-22T02:23:23;30;26;
62591;PMS5003;48659;41.622;2.276;2024-03-22T02:25:59;28;25;
62591;PMS5003;48659;41.622;2.276;2024-03-22T02:28:34;29;23;
62591;PMS5003;48659;41.622;2.276;2024-03-22T02:31:02;29;27;
62591;PMS5003;48659;41.622;2.276;2024-03-22T02:33:31;28;26;
62591;PMS5003;48659;41.622;2.276;2024-03-22T02:35:58;31;24;
62591;PMS5003;48659;41.622;2.276;2024-03-22T02:38:26;19;19;
62591;PMS5003;48659;41.622;2.276;2024-03-22T02:40:53;31;26;
62591;PMS5003;48659;41.622;2.276;2024-03-22T02:43:21;27;24;
62591;PMS5003;48659;41.622;2.276;2024-03-22T02:45:48;20;17;
62591;PMS5003;48659;41.622;2.276;2024-03-22T02:48:16;25;22;
62591;PMS5003;48659;41.622;2.276;2024-03-22T02:50:43;33;25;
62591;PMS5003;48659;41.622;2.276;2024-03-22T02:53:10;32;27;
62591;PMS5003;48659;41.622;2.276;2024-03-22T02:55:38;33;23;
62591;PMS5003;48659;41.622;2.276;2024-03-22T02:58:06;24;21;
62591;PMS5003;48659;41.622;2.276;2024-03-22T03:00:35;24;24;
62591;PMS5003;48659;41.622;2.276;2024-03-22T03:03:04;29;24;
62591;PMS5003;48659;41.622;2.276;2024-03-22T03:05:31;23;20;
62591;PMS5003;48659;41.622;2.276;2024-03-22T03:07:59;32;26;
62591;PMS5003;48659;41.622;2.276;2024-03-22T03:10:27;27;26;
62591;PMS5003;48659;41.622;2.276;2024-03-22T03:12:55;27;27;
62591;PMS5003;48659;41.622;2.276;2024-03-22T03:15:23;24;19;
62591;PMS5003;48659;41.622;2.276;2024-03-22T03:17:50;26;22;
62591;PMS5003;48659;41.622;2.276;2024-03-22T03:20:18;28;25;
62591;PMS5003;48659;41.622;2.276;2024-03-22T03:22:46;19;19;
62591;PMS5003;48659;41.622;2.276;2024-03-22T03:25:13;25;23;
62591;PMS5003;48659;41.622;2.276;2024-03-22T03:27:40;21;19;
62591;PMS5003;48659;41.622;2.276;2024-03-22T03:30:08;31;25;
62591;PMS5003;48659;41.622;2.276;2024-03-22T03:32:36;31;25;
62591;PMS5003;48659;41.622;2.276;2024-03-22T03:35:04;31;29;
62591;PMS5003;48659;41.622;2.276;2024-03-22T03:37:32;23;21;
62591;PMS5003;48659;41.622;2.276;2024-03-22T03:39:59;20;19;
62591;PMS5003;48659;41.622;2.276;2024-03-22T03:42:27;29;25;
62591;PMS5003;48659;41.622;2.276;2024-03-22T03:44:54;27;25;
62591;PMS5003;48659;41.622;2.276;2024-03-22T03:47:22;20;19;
62591;PMS5003;48659;41.622;2.276;2024-03-22T03:49:49;28;25;
62591;PMS5003;48659;41.622;2.276;2024-03-22T03:52:16;24;18;
62591;PMS5003;48659;41.622;2.276;2024-03-22T03:59:06;24;22;
62591;PMS5003;48659;41.622;2.276;2024-03-22T04:01:34;22;18;
62591;PMS5003;48659;41.622;2.276;2024-03-22T04:04:02;27;23;
62591;PMS5003;48659;41.622;2.276;2024-03-22T04:06:30;27;23;
62591;PMS5003;48659;41.622;2.276;2024-03-22T04:08:58;17;17;
62591;PMS5003;48659;41.622;2.276;2024-03-22T04:11:34;19;17;
62591;PMS5003;48659;41.622;2.276;2024-03-22T04:14:02;23;20;
62591;PMS5003;48659;41.622;2.276;2024-03-22T04:16:35;28;20;
62591;PMS5003;48659;41.622;2.276;2024-03-22T04:19:03;26;20;
62591;PMS5003;48659;41.622;2.276;2024-03-22T04:21:30;29;26;
62591;PMS5003;48659;41.622;2.276;2024-03-22T04:23:58;28;22;
62591;PMS5003;48659;41.622;2.276;2024-03-22T04:26:26;32;26;
62591;PMS5003;48659;41.622;2.276;2024-03-22T04:28:54;27;25;
62591;PMS5003;48659;41.622;2.276;2024-03-22T04:31:21;24;24;
62591;PMS5003;48659;41.622;2.276;2024-03-22T04:33:49;24;24;
62591;PMS5003;48659;41.622;2.276;2024-03-22T04:36:16;22;20;
62591;PMS5003;48659;41.622;2.276;2024-03-22T04:38:43;24;21;
62591;PMS5003;48659;41.622;2.276;2024-03-22T04:41:11;38;33;
62591;PMS5003;48659;41.622;2.276;2024-03-22T04:43:38;19;17;
62591;PMS5003;48659;41.622;2.276;2024-03-22T04:46:06;22;19;
62591;PMS5003;48659;41.622;2.276;2024-03-22T04:48:34;21;21;
62591;PMS5003;48659;41.622;2.276;2024-03-22T04:51:03;27;26;
62591;PMS5003;48659;41.622;2.276;2024-03-22T04:53:31;25;25;
62591;PMS5003;48659;41.622;2.276;2024-03-22T04:55:59;20;17;
62591;PMS5003;48659;41.622;2.276;2024-03-22T04:58:34;26;23;
62591;PMS5003;48659;41.622;2.276;2024-03-22T05:01:01;18;16;
62591;PMS5003;48659;41.622;2.276;2024-03-22T05:03:29;16;16;
62591;PMS5003;48659;41.622;2.276;2024-03-22T05:05:57;17;15;
62591;PMS5003;48659;41.622;2.276;2024-03-22T05:08:25;39;37;
62591;PMS5003;48659;41.622;2.276;2024-03-22T05:10:54;32;28;
62591;PMS5003;48659;41.622;2.276;2024-03-22T05:13:22;26;21;
62591;PMS5003;48659;41.622;2.276;2024-03-22T05:15:54;22;22;
62591;PMS5003;48659;41.622;2.276;2024-03-22T05:18:22;20;16;
62591;PMS5003;48659;41.622;2.276;2024-03-22T05:20:51;24;14;
62591;PMS5003;48659;41.622;2.276;2024-03-22T05:23:18;18;15;
62591;PMS5003;48659;41.622;2.276;2024-03-22T05:25:45;19;17;
62591;PMS5003;48659;41.622;2.276;2024-03-22T05:28:13;18;13;
62591;PMS5003;48659;41.622;2.276;2024-03-22T05:30:40;16;14;
62591;PMS5003;48659;41.622;2.276;2024-03-22T05:33:08;25;21;
62591;PMS5003;48659;41.622;2.276;2024-03-22T05:35:36;15;14;
62591;PMS5003;48659;41.622;2.276;2024-03-22T05:38:06;20;18;
62591;PMS5003;48659;41.622;2.276;2024-03-22T05:40:36;24;19;
62591;PMS5003;48659;41.622;2.276;2024-03-22T05:43:04;25;19;
62591;PMS5003;48659;41.622;2.276;2024-03-22T05:45:31;20;17;
62591;PMS5003;48659;41.622;2.276;2024-03-22T05:47:59;21;14;
62591;PMS5003;48659;41.622;2.276;2024-03-22T05:50:27;15;13;
62591;PMS5003;48659;41.622;2.276;2024-03-22T05:52:55;19;17;
62591;PMS5003;48659;41.622;2.276;2024-03-22T05:55:22;16;14;
62591;PMS5003;48659;41.622;2.276;2024-03-22T05:57:49;17;17;
62591;PMS5003;48659;41.622;2.276;2024-03-22T06:00:17;19;12;
62591;PMS5003;48659;41.622;2.276;2024-03-22T06:02:44;24;16;
62591;PMS5003;48659;41.622;2.276;2024-03-22T06:05:12;18;14;
62591;PMS5003;48659;41.622;2.276;2024-03-22T06:07:40;16;14;
62591;PMS5003;48659;41.622;2.276;2024-03-22T06:10:09;20;17;
62591;PMS5003;48659;41.622;2.276;2024-03-22T06:12:36;19;18;
62591;PMS5003;48659;41.622;2.276;2024-03-22T06:15:04;16;15;
62591;PMS5003;48659;41.622;2.276;2024-03-22T06:17:32;20;18;
62591;PMS5003;48659;41.622;2.276;2024-03-22T06:20:00;28;22;
62591;PMS5003;48659;41.622;2.276;2024-03-22T06:22:27;19;16;
62591;PMS5003;48659;41.622;2.276;2024-03-22T06:24:55;23;20;
62591;PMS5003;48659;41.622;2.276;2024-03-22T06:27:23;26;23;
62591;PMS5003;48659;41.622;2.276;2024-03-22T06:29:51;19;16;
62591;PMS5003;48659;41.622;2.276;2024-03-22T06:32:19;25;19;
62591;PMS5003;48659;41.622;2.276;2024-03-22T06:34:46;20;17;
62591;PMS5003;48659;41.622;2.276;2024-03-22T06:37:14;21;18;
62591;PMS5003;48659;41.622;2.276;2024-03-22T06:39:42;26;19;
62591;PMS5003;48659;41.622;2.276;2024-03-22T06:42:10;23;18;
62591;PMS5003;48659;41.622;2.276;2024-03-22T06:44:38;22;21;
62591;PMS5003;48659;41.622;2.276;2024-03-22T06:47:05;28;22;
62591;PMS5003;48659;41.622;2.276;2024-03-22T06:49:33;23;21;
62591;PMS5003;48659;41.622;2.276;2024-03-22T06:52:01;26;25;
62591;PMS5003;48659;41.622;2.276;2024-03-22T06:54:28;25;23;
62591;PMS5003;48659;41.622;2.276;2024-03-22T06:56:56;28;22;
62591;PMS5003;48659;41.622;2.276;2024-03-22T06:59:23;26;24;
62591;PMS5003;48659;41.622;2.276;2024-03-22T07:01:50;22;21;
62591;PMS5003;48659;41.622;2.276;2024-03-22T07:04:18;37;31;
62591;PMS5003;48659;41.622;2.276;2024-03-22T07:06:45;32;27;
62591;PMS5003;48659;41.622;2.276;2024-03-22T07:09:12;25;19;
62591;PMS5003;48659;41.622;2.276;2024-03-22T07:11:39;32;27;
62591;PMS5003;48659;41.622;2.276;2024-03-22T07:14:07;27;21;
62591;PMS5003;48659;41.622;2.276;2024-03-22T07:16:35;31;26;
62591;PMS5003;48659;41.622;2.276;2024-03-22T07:19:02;28;25;
62591;PMS5003;48659;41.622;2.276;2024-03-22T07:21:30;30;25;
62591;PMS5003;48659;41.622;2.276;2024-03-22T07:23:57;35;29;
62591;PMS5003;48659;41.622;2.276;2024-03-22T07:26:25;31;27;
62591;PMS5003;48659;41.622;2.276;2024-03-22T07:28:52;38;29;
62591;PMS5003;48659;41.622;2.276;2024-03-22T07:31:20;30;28;
62591;PMS5003;48659;41.622;2.276;2024-03-22T07:33:48;29;26;
62591;PMS5003;48659;41.622;2.276;2024-03-22T07:36:15;29;24;
62591;PMS5003;48659;41.622;2.276;2024-03-22T07:38:42;30;30;
62591;PMS5003;48659;41.622;2.276;2024-03-22T07:41:10;32;26;
62591;PMS5003;48659;41.622;2.276;2024-03-22T07:43:37;28;25;
62591;PMS5003;48659;41.622;2.276;2024-03-22T07:46:04;28;25;
62591;PMS5003;48659;41.622;2.276;2024-03-22T07:48:32;24;23;
62591;PMS5003;48659;41.622;2.276;2024-03-22T07:51:00;35;28;
62591;PMS5003;48659;41.622;2.276;2024-03-22T07:53:28;34;28;
62591;PMS5003;48659;41.622;2.276;2024-03-22T07:55:55;32;30;
62591;PMS5003;48659;41.622;2.276;2024-03-22T07:58:23;31;28;
62591;PMS5003;48659;41.622;2.276;2024-03-22T08:00:51;27;25;
62591;PMS5003;48659;41.622;2.276;2024-03-22T08:03:18;34;29;
62591;PMS5003;48659;41.622;2.276;2024-03-22T08:05:45;33;26;
62591;PMS5003;48659;41.622;2.276;2024-03-22T08:08:13;38;30;
62591;PMS5003;48659;41.622;2.276;2024-03-22T08:10:41;23;19;
62591;PMS5003;48659;41.622;2.276;2024-03-22T08:13:08;31;28;
62591;PMS5003;48659;41.622;2.276;2024-03-22T08:15:35;36;32;
62591;PMS5003;48659;41.622;2.276;2024-03-22T08:18:03;29;28;
62591;PMS5003;48659;41.622;2.276;2024-03-22T08:20:31;30;27;
62591;PMS5003;48659;41.622;2.276;2024-03-22T08:23:00;41;33;
62591;PMS5003;48659;41.622;2.276;2024-03-22T08:25:27;31;26;
62591;PMS5003;48659;41.622;2.276;2024-03-22T08:27:55;30;27;
62591;PMS5003;48659;41.622;2.276;2024-03-22T08:30:22;30;27;
62591;PMS5003;48659;41.622;2.276;2024-03-22T08:32:50;38;33;
62591;PMS5003;48659;41.622;2.276;2024-03-22T08:35:17;33;29;
62591;PMS5003;48659;41.622;2.276;2024-03-22T08:37:45;35;33;
62591;PMS5003;48659;41.622;2.276;2024-03-22T08:40:12;37;31;
62591;PMS5003;48659;41.622;2.276;2024-03-22T08:42:40;33;22;
62591;PMS5003;48659;41.622;2.276;2024-03-22T08:45:07;34;26;
62591;PMS5003;48659;41.622;2.276;2024-03-22T08:47:36;27;25;
62591;PMS5003;48659;41.622;2.276;2024-03-22T08:50:04;26;24;
62591;PMS5003;48659;41.622;2.276;2024-03-22T08:52:33;30;28;
62591;PMS5003;48659;41.622;2.276;2024-03-22T08:55:01;41;33;
62591;PMS5003;48659;41.622;2.276;2024-03-22T08:57:28;35;30;
62591;PMS5003;48659;41.622;2.276;2024-03-22T08:59:56;35;32;
62591;PMS5003;48659;41.622;2.276;2024-03-22T09:02:24;28;24;
62591;PMS5003;48659;41.622;2.276;2024-03-22T09:04:52;24;20;
62591;PMS5003;48659;41.622;2.276;2024-03-22T09:07:20;22;17;
62591;PMS5003;48659;41.622;2.276;2024-03-22T09:09:47;18;12;
62591;PMS5003;48659;41.622;2.276;2024-03-22T09:12:14;15;15;
62591;PMS5003;48659;41.622;2.276;2024-03-22T09:14:42;21;14;
62591;PMS5003;48659;41.622;2.276;2024-03-22T09:17:09;15;11;
62591;PMS5003;48659;41.622;2.276;2024-03-22T09:19:37;26;19;
62591;PMS5003;48659;41.622;2.276;2024-03-22T09:22:05;15;14;
62591;PMS5003;48659;41.622;2.276;2024-03-22T09:24:33;16;13;
62591;PMS5003;48659;41.622;2.276;2024-03-22T09:27:00;13;13;
62591;PMS5003;48659;41.622;2.276;2024-03-22T09:29:27;19;14;
62591;PMS5003;48659;41.622;2.276;2024-03-22T09:31:55;13;12;
62591;PMS5003;48659;41.622;2.276;2024-03-22T09:34:22;17;14;
62591;PMS5003;48659;41.622;2.276;2024-03-22T09:36:50;17;17;
62591;PMS5003;48659;41.622;2.276;2024-03-22T09:39:17;17;16;
62591;PMS5003;48659;41.622;2.276;2024-03-22T09:41:44;11;10;
62591;PMS5003;48659;41.622;2.276;2024-03-22T09:44:13;15;14;
62591;PMS5003;48659;41.622;2.276;2024-03-22T09:46:46;12;12;
62591;PMS5003;48659;41.622;2.276;2024-03-22T09:49:14;17;12;
62591;PMS5003;48659;41.622;2.276;2024-03-22T09:51:43;11;11;
62591;PMS5003;48659;41.622;2.276;2024-03-22T09:54:11;14;11;
62591;PMS5003;48659;41.622;2.276;2024-03-22T09:56:38;10;9;
62591;PMS5003;48659;41.622;2.276;2024-03-22T09:59:06;18;13;
62591;PMS5003;48659;41.622;2.276;2024-03-22T10:01:33;13;12;
62591;PMS5003;48659;41.622;2.276;2024-03-22T10:04:01;14;9;
62591;PMS5003;48659;41.622;2.276;2024-03-22T10:06:29;11;8;
62591;PMS5003;48659;41.622;2.276;2024-03-22T10:08:58;18;14;
62591;PMS5003;48659;41.622;2.276;2024-03-22T10:11:26;17;12;
62591;PMS5003;48659;41.622;2.276;2024-03-22T10:13:54;15;9;
62591;PMS5003;48659;41.622;2.276;2024-03-22T10:16:22;21;17;
62591;PMS5003;48659;41.622;2.276;2024-03-22T10:18:50;13;9;
62591;PMS5003;48659;41.622;2.276;2024-03-22T10:21:18;7;7;
62591;PMS5003;48659;41.622;2.276;2024-03-22T10:23:46;5;5;
62591;PMS5003;48659;41.622;2.276;2024-03-22T10:26:13;5;5;
62591;PMS5003;48659;41.622;2.276;2024-03-22T10:28:44;7;6;
62591;PMS5003;48659;41.622;2.276;2024-03-22T10:31:12;7;5;
62591;PMS5003;48659;41.622;2.276;2024-03-22T10:33:40;9;6;
62591;PMS5003;48659;41.622;2.276;2024-03-22T10:36:08;7;7;
62591;PMS5003;48659;41.622;2.276;2024-03-22T10:38:38;6;6;
62591;PMS5003;48659;41.622;2.276;2024-03-22T10:41:10;4;4;
62591;PMS5003;48659;41.622;2.276;2024-03-22T10:43:38;5;3;
62591;PMS5003;48659;41.622;2.276;2024-03-22T10:46:06;12;7;
62591;PMS5003;48659;41.622;2.276;2024-03-22T10:48:36;5;5;
62591;PMS5003;48659;41.622;2.276;2024-03-22T10:51:06;5;5;
62591;PMS5003;48659;41.622;2.276;2024-03-22T10:53:34;6;6;
62591;PMS5003;48659;41.622;2.276;2024-03-22T10:56:03;7;7;
62591;PMS5003;48659;41.622;2.276;2024-03-22T10:58:33;10;7;
62591;PMS5003;48659;41.622;2.276;2024-03-22T11:01:00;7;6;
62591;PMS5003;48659;41.622;2.276;2024-03-22T11:03:27;5;5;
62591;PMS5003;48659;41.622;2.276;2024-03-22T11:05:56;8;5;
62591;PMS5003;48659;41.622;2.276;2024-03-22T11:08:24;6;5;
62591;PMS5003;48659;41.622;2.276;2024-03-22T11:10:54;5;4;
62591;PMS5003;48659;41.622;2.276;2024-03-22T11:13:24;7;5;
62591;PMS5003;48659;41.622;2.276;2024-03-22T11:15:51;7;6;
62591;PMS5003;48659;41.622;2.276;2024-03-22T11:18:19;7;5;
62591;PMS5003;48659;41.622;2.276;2024-03-22T11:20:46;5;5;
62591;PMS5003;48659;41.622;2.276;2024-03-22T11:23:14;7;4;
62591;PMS5003;48659;41.622;2.276;2024-03-22T11:25:41;6;6;
62591;PMS5003;48659;41.622;2.276;2024-03-22T11:28:09;7;5;
62591;PMS5003;48659;41.622;2.276;2024-03-22T11:30:37;6;4;
62591;PMS5003;48659;41.622;2.276;2024-03-22T11:33:05;8;5;
62591;PMS5003;48659;41.622;2.276;2024-03-22T11:35:33;8;7;
62591;PMS5003;48659;41.622;2.276;2024-03-22T11:38:01;4;4;
62591;PMS5003;48659;41.622;2.276;2024-03-22T11:40:28;7;5;
62591;PMS5003;48659;41.622;2.276;2024-03-22T11:42:58;9;8;
62591;PMS5003;48659;41.622;2.276;2024-03-22T11:45:27;7;4;
62591;PMS5003;48659;41.622;2.276;2024-03-22T11:47:55;8;6;
62591;PMS5003;48659;41.622;2.276;2024-03-22T11:50:23;6;5;
62591;PMS5003;48659;41.622;2.276;2024-03-22T11:52:51;7;6;
62591;PMS5003;48659;41.622;2.276;2024-03-22T11:55:20;7;6;
62591;PMS5003;48659;41.622;2.276;2024-03-22T11:57:47;9;3;
62591;PMS5003;48659;41.622;2.276;2024-03-22T12:00:16;3;2;
62591;PMS5003;48659;41.622;2.276;2024-03-22T12:02:44;9;8;
62591;PMS5003;48659;41.622;2.276;2024-03-22T12:05:12;7;5;
62591;PMS5003;48659;41.622;2.276;2024-03-22T12:07:39;6;5;
62591;PMS5003;48659;41.622;2.276;2024-03-22T12:10:07;13;9;
62591;PMS5003;48659;41.622;2.276;2024-03-22T12:12:34;8;7;
62591;PMS5003;48659;41.622;2.276;2024-03-22T12:15:02;6;6;
62591;PMS5003;48659;41.622;2.276;2024-03-22T12:17:34;3;3;
62591;PMS5003;48659;41.622;2.276;2024-03-22T12:20:02;7;7;
62591;PMS5003;48659;41.622;2.276;2024-03-22T12:22:30;4;4;
62591;PMS5003;48659;41.622;2.276;2024-03-22T12:24:58;2;2;
62591;PMS5003;48659;41.622;2.276;2024-03-22T12:27:26;11;6;
62591;PMS5003;48659;41.622;2.276;2024-03-22T12:29:54;4;4;
62591;PMS5003;48659;41.622;2.276;2024-03-22T12:32:21;6;5;
62591;PMS5003;48659;41.622;2.276;2024-03-22T12:34:49;7;4;
62591;PMS5003;48659;41.622;2.276;2024-03-22T12:37:17;4;3;
62591;PMS5003;48659;41.622;2.276;2024-03-22T12:39:45;7;7;
62591;PMS5003;48659;41.622;2.276;2024-03-22T12:42:13;6;5;
62591;PMS5003;48659;41.622;2.276;2024-03-22T12:44:40;9;6;
62591;PMS5003;48659;41.622;2.276;2024-03-22T12:47:07;6;6;
62591;PMS5003;48659;41.622;2.276;2024-03-22T12:49:35;6;3;
62591;PMS5003;48659;41.622;2.276;2024-03-22T12:52:03;8;5;
62591;PMS5003;48659;41.622;2.276;2024-03-22T12:54:30;6;5;
62591;PMS5003;48659;41.622;2.276;2024-03-22T12:56:58;8;6;
62591;PMS5003;48659;41.622;2.276;2024-03-22T12:59:33;4;3;
62591;PMS5003;48659;41.622;2.276;2024-03-22T13:02:01;5;3;
62591;PMS5003;48659;41.622;2.276;2024-03-22T13:04:29;5;5;
62591;PMS5003;48659;41.622;2.276;2024-03-22T13:06:56;6;4;
62591;PMS5003;48659;41.622;2.276;2024-03-22T13:09:24;5;5;
62591;PMS5003;48659;41.622;2.276;2024-03-22T13:11:52;6;4;
62591;PMS5003;48659;41.622;2.276;2024-03-22T13:14:20;4;3;
62591;PMS5003;48659;41.622;2.276;2024-03-22T13:16:47;6;4;
62591;PMS5003;48659;41.622;2.276;2024-03-22T13:19:15;3;3;
62591;PMS5003;48659;41.622;2.276;2024-03-22T13:21:43;7;5;
62591;PMS5003;48659;41.622;2.276;2024-03-22T13:24:10;5;5;
62591;PMS5003;48659;41.622;2.276;2024-03-22T13:26:37;9;6;
62591;PMS5003;48659;41.622;2.276;2024-03-22T13:29:05;3;3;
62591;PMS5003;48659;41.622;2.276;2024-03-22T13:31:33;13;11;
62591;PMS5003;48659;41.622;2.276;2024-03-22T13:34:00;6;6;
62591;PMS5003;48659;41.622;2.276;2024-03-22T13:36:28;8;5;
62591;PMS5003;48659;41.622;2.276;2024-03-22T13:38:56;6;5;
62591;PMS5003;48659;41.622;2.276;2024-03-22T13:41:23;5;3;
62591;PMS5003;48659;41.622;2.276;2024-03-22T13:43:50;5;5;
62591;PMS5003;48659;41.622;2.276;2024-03-22T13:46:18;5;4;
62591;PMS5003;48659;41.622;2.276;2024-03-22T13:48:45;6;5;
62591;PMS5003;48659;41.622;2.276;2024-03-22T13:51:14;13;6;
62591;PMS5003;48659;41.622;2.276;2024-03-22T13:53:41;7;5;
62591;PMS5003;48659;41.622;2.276;2024-03-22T13:56:08;9;8;
62591;PMS5003;48659;41.622;2.276;2024-03-22T13:58:35;5;5;
62591;PMS5003;48659;41.622;2.276;2024-03-22T14:01:03;5;5;
62591;PMS5003;48659;41.622;2.276;2024-03-22T14:03:30;11;7;
62591;PMS5003;48659;41.622;2.276;2024-03-22T14:05:57;11;7;
62591;PMS5003;48659;41.622;2.276;2024-03-22T14:08:25;7;5;
62591;PMS5003;48659;41.622;2.276;2024-03-22T14:10:53;8;7;
62591;PMS5003;48659;41.622;2.276;2024-03-22T14:13:21;3;3;
62591;PMS5003;48659;41.622;2.276;2024-03-22T14:15:48;6;6;
62591;PMS5003;48659;41.622;2.276;2024-03-22T14:18:16;6;4;
62591;PMS5003;48659;41.622;2.276;2024-03-22T14:20:43;6;5;
62591;PMS5003;48659;41.622;2.276;2024-03-22T14:23:11;7;5;
62591;PMS5003;48659;41.622;2.276;2024-03-22T14:25:38;6;6;
62591;PMS5003;48659;41.622;2.276;2024-03-22T14:28:06;11;6;
62591;PMS5003;48659;41.622;2.276;2024-03-22T14:30:34;6;5;
62591;PMS5003;48659;41.622;2.276;2024-03-22T14:33:03;9;9;
62591;PMS5003;48659;41.622;2.276;2024-03-22T14:35:31;5;3;
62591;PMS5003;48659;41.622;2.276;2024-03-22T14:37:59;9;7;
62591;PMS5003;48659;41.622;2.276;2024-03-22T14:40:27;9;6;
62591;PMS5003;48659;41.622;2.276;2024-03-22T14:42:54;7;4;
62591;PMS5003;48659;41.622;2.276;2024-03-22T14:45:22;5;5;
62591;PMS5003;48659;41.622;2.276;2024-03-22T14:47:49;4;4;
62591;PMS5003;48659;41.622;2.276;2024-03-22T14:50:17;5;4;
62591;PMS5003;48659;41.622;2.276;2024-03-22T14:52:47;7;7;
62591;PMS5003;48659;41.622;2.276;2024-03-22T14:55:15;7;4;
62591;PMS5003;48659;41.622;2.276;2024-03-22T14:57:43;4;4;
62591;PMS5003;48659;41.622;2.276;2024-03-22T15:00:12;4;4;
62591;PMS5003;48659;41.622;2.276;2024-03-22T15:02:41;5;5;
62591;PMS5003;48659;41.622;2.276;2024-03-22T15:05:08;3;3;
62591;PMS5003;48659;41.622;2.276;2024-03-22T15:07:36;5;4;
62591;PMS5003;48659;41.622;2.276;2024-03-22T15:10:04;7;4;
62591;PMS5003;48659;41.622;2.276;2024-03-22T15:12:32;3;3;
62591;PMS5003;48659;41.622;2.276;2024-03-22T15:14:59;7;7;
62591;PMS5003;48659;41.622;2.276;2024-03-22T15:17:27;2;2;
62591;PMS5003;48659;41.622;2.276;2024-03-22T15:19:55;4;4;
62591;PMS5003;48659;41.622;2.276;2024-03-22T15:22:22;8;6;
62591;PMS5003;48659;41.622;2.276;2024-03-22T15:24:50;4;4;
62591;PMS5003;48659;41.622;2.276;2024-03-22T15:27:18;4;4;
62591;PMS5003;48659;41.622;2.276;2024-03-22T15:29:46;5;4;
62591;PMS5003;48659;41.622;2.276;2024-03-22T15:32:13;4;4;
62591;PMS5003;48659;41.622;2.276;2024-03-22T15:34:41;6;6;
62591;PMS5003;48659;41.622;2.276;2024-03-22T15:37:09;7;5;
62591;PMS5003;48659;41.622;2.276;2024-03-22T15:39:37;4;4;
62591;PMS5003;48659;41.622;2.276;2024-03-22T15:42:05;9;5;
62591;PMS5003;48659;41.622;2.276;2024-03-22T15:44:33;6;5;
62591;PMS5003;48659;41.622;2.276;2024-03-22T15:47:00;6;4;
62591;PMS5003;48659;41.622;2.276;2024-03-22T15:49:34;5;5;
62591;PMS5003;48659;41.622;2.276;2024-03-22T15:52:02;8;7;
62591;PMS5003;48659;41.622;2.276;2024-03-22T15:54:30;8;6;
62591;PMS5003;48659;41.622;2.276;2024-03-22T15:56:58;5;4;
62591;PMS5003;48659;41.622;2.276;2024-03-22T15:59:35;7;4;
62591;PMS5003;48659;41.622;2.276;2024-03-22T16:02:03;4;4;
62591;PMS5003;48659;41.622;2.276;2024-03-22T16:04:31;8;8;
62591;PMS5003;48659;41.622;2.276;2024-03-22T16:06:59;4;4;
62591;PMS5003;48659;41.622;2.276;2024-03-22T16:09:35;6;4;
62591;PMS5003;48659;41.622;2.276;2024-03-22T16:12:03;6;4;
62591;PMS5003;48659;41.622;2.276;2024-03-22T16:14:32;6;6;
62591;PMS5003;48659;41.622;2.276;2024-03-22T16:16:59;7;4;
62591;PMS5003;48659;41.622;2.276;2024-03-22T16:19:35;8;5;
62591;PMS5003;48659;41.622;2.276;2024-03-22T16:22:14;4;3;
62591;PMS5003;48659;41.622;2.276;2024-03-22T16:24:47;13;6;
62591;PMS5003;48659;41.622;2.276;2024-03-22T16:27:16;7;7;
62591;PMS5003;48659;41.622;2.276;2024-03-22T16:29:43;7;5;
62591;PMS5003;48659;41.622;2.276;2024-03-22T16:32:10;6;5;
62591;PMS5003;48659;41.622;2.276;2024-03-22T16:34:37;7;6;
62591;PMS5003;48659;41.622;2.276;2024-03-22T16:37:05;6;4;
62591;PMS5003;48659;41.622;2.276;2024-03-22T16:39:33;4;4;